Terminal Aerodrome Forecast
Issued by NWS

Home | Current Version | Previous Version | Text Only | Print | Product List | Glossary On
Versions: 1 2 3 4 5 6 7 8 9 10 11 12 13 14 15 16 17 18 19 20
000
FTUS46 KEKA 251734
TAFCEC
TAF
KCEC 251734Z 2518/2618 34013G20KT P6SM SCT250
      TEMPO 2521/2601 34018G29KT 6SM HZ FEW030 SCT250
     FM260300 33010G18KT P6SM FEW030
     FM260600 16009KT 6SM BR BKN012
     FM260900 VRB05KT 5SM BR OVC005
     FM261600 14005KT 6SM BR SCT005 BKN015=

USA.gov is the U.S. government's official web portal to all federal, state and local government web resources and services.